Time;durP1;ratioP1;P1;durP2;ratioP2;P2;SDS_P1;SDS_P2;PMS_P1;PMS_P2;Temp;Humidity;BMP_temperature;BMP_pressure;BME280_temperature;BME280_humidity;BME280_pressure;Samples;Min_cycle;Max_cycle;Signal;HPM_P1;HPM_P2
2023/05/29 00:01:40;;;;;;;7.60;4.60;;;15.60;99.90;;;;;;5103551;28;20457;-83
2023/05/29 00:04:07;;;;;;;6.80;3.90;;;15.60;99.90;;;;;;5100207;28;20444;-83
2023/05/29 00:06:36;;;;;;;12.00;5.57;;;15.60;99.90;;;;;;5101283;28;20460;-82
2023/05/29 00:09:03;;;;;;;9.10;4.57;;;15.50;99.90;;;;;;5102754;28;20470;-83
2023/05/29 00:11:31;;;;;;;5.87;3.60;;;15.50;99.90;;;;;;5100848;28;20477;-83
2023/05/29 00:13:58;;;;;;;6.33;4.23;;;15.20;99.90;;;;;;5100995;28;20463;-83
2023/05/29 00:16:25;;;;;;;12.17;5.57;;;15.20;99.90;;;;;;5102226;28;20520;-83
2023/05/29 00:18:53;;;;;;;8.13;4.40;;;15.30;99.90;;;;;;5100918;28;20528;-82
2023/05/29 00:21:20;;;;;;;5.87;4.10;;;15.30;99.90;;;;;;5101156;28;20492;-83
2023/05/29 00:23:49;;;;;;;5.00;3.97;;;15.30;99.90;;;;;;5101874;28;20460;-83
2023/05/29 00:26:16;;;;;;;7.10;4.47;;;15.30;99.90;;;;;;5096196;28;20577;-82
2023/05/29 00:28:43;;;;;;;7.03;4.70;;;15.30;99.90;;;;;;5090632;28;20994;-83
2023/05/29 00:31:11;;;;;;;4.50;3.23;;;15.30;99.90;;;;;;5091446;28;20517;-83
2023/05/29 00:33:38;;;;;;;5.87;4.60;;;15.30;99.90;;;;;;5091216;28;20496;-83
2023/05/29 00:36:06;;;;;;;9.20;4.60;;;15.00;99.90;;;;;;5089916;28;20757;-83
2023/05/29 00:38:33;;;;;;;6.40;4.90;;;14.90;99.90;;;;;;5091500;28;20446;-83
2023/05/29 00:41:02;;;;;;;6.93;4.50;;;15.00;99.90;;;;;;5091487;28;21033;-83
2023/05/29 00:43:29;;;;;;;5.20;4.07;;;15.00;99.90;;;;;;5089471;28;20466;-83
2023/05/29 00:45:56;;;;;;;7.13;3.93;;;15.00;99.90;;;;;;5091133;28;20434;-83
2023/05/29 00:48:23;;;;;;;5.93;4.53;;;15.00;99.90;;;;;;5090344;28;20535;-83
2023/05/29 00:50:51;;;;;;;7.10;4.33;;;14.80;99.90;;;;;;5090570;28;20858;-83
2023/05/29 00:53:18;;;;;;;5.20;3.97;;;14.60;99.90;;;;;;5088419;28;20529;-82
2023/05/29 00:55:45;;;;;;;8.80;4.03;;;14.40;99.90;;;;;;5089965;28;20562;-83
2023/05/29 00:58:14;;;;;;;7.80;4.10;;;14.30;99.90;;;;;;5090551;28;20939;-83
2023/05/29 01:00:42;;;;;;;6.03;3.90;;;14.30;99.90;;;;;;5090567;28;20500;-83
2023/05/29 01:03:10;;;;;;;8.10;4.90;;;14.30;99.90;;;;;;5090979;28;20531;-83
2023/05/29 01:05:37;;;;;;;6.57;4.60;;;14.50;99.90;;;;;;5091116;28;20528;-83
2023/05/29 01:08:04;;;;;;;5.67;4.47;;;14.60;99.90;;;;;;5091386;28;20970;-83
2023/05/29 01:10:32;;;;;;;5.87;4.47;;;14.60;99.90;;;;;;5091243;28;20478;-83
2023/05/29 01:13:07;;;;;;;7.20;4.50;;;14.60;99.90;;;;;;5091284;28;20829;-83
2023/05/29 01:15:43;;;;;;;8.03;5.10;;;14.70;99.90;;;;;;5091278;28;20473;-83
2023/05/29 01:18:32;;;;;;;6.10;4.03;;;14.70;99.90;;;;;;5091606;28;20439;-83
2023/05/29 01:21:09;;;;;;;6.27;4.37;;;14.70;99.90;;;;;;5091382;28;20440;-83
2023/05/29 01:24:04;;;;;;;7.70;4.17;;;14.60;99.90;;;;;;5090928;28;20444;-83
2023/05/29 01:26:52;;;;;;;5.60;3.70;;;14.60;99.90;;;;;;5091573;28;20526;-83
2023/05/29 01:29:22;;;;;;;6.20;4.30;;;14.50;99.90;;;;;;5080948;28;20490;-83
2023/05/29 01:31:50;;;;;;;7.00;4.10;;;14.50;99.90;;;;;;5091482;28;20477;-83
2023/05/29 01:34:17;;;;;;;6.50;3.93;;;14.50;99.90;;;;;;5090985;28;20885;-83
2023/05/29 01:36:46;;;;;;;10.00;4.77;;;14.50;99.90;;;;;;5089000;28;20481;-83
2023/05/29 01:39:14;;;;;;;6.63;4.67;;;14.50;99.90;;;;;;5089708;28;20451;-83
2023/05/29 01:41:42;;;;;;;5.10;3.60;;;14.50;99.90;;;;;;5093870;28;20460;-83
2023/05/29 01:44:11;;;;;;;5.00;3.93;;;14.20;99.90;;;;;;5094724;28;20580;-83
2023/05/29 01:46:39;;;;;;;9.13;4.27;;;14.20;99.90;;;;;;5094701;28;20881;-83
2023/05/29 01:49:07;;;;;;;6.60;4.57;;;14.30;99.90;;;;;;5094772;28;20526;-83
2023/05/29 01:51:34;;;;;;;6.53;4.37;;;14.30;99.90;;;;;;5093536;28;20500;-82
2023/05/29 01:54:01;;;;;;;7.60;4.60;;;14.40;99.90;;;;;;5094510;28;20545;-83
2023/05/29 01:56:28;;;;;;;5.83;4.23;;;14.30;99.90;;;;;;5094543;28;20553;-83
2023/05/29 01:58:56;;;;;;;7.00;4.20;;;14.30;99.90;;;;;;5094765;28;21013;-82
2023/05/29 02:01:25;;;;;;;6.27;3.90;;;14.40;99.90;;;;;;5094436;28;21042;-83
2023/05/29 02:03:53;;;;;;;6.50;4.47;;;14.20;99.90;;;;;;5094624;28;20476;-83
2023/05/29 02:06:20;;;;;;;7.20;4.37;;;14.20;99.90;;;;;;5094058;28;20468;-82
2023/05/29 02:08:47;;;;;;;8.40;4.63;;;14.20;99.90;;;;;;5094509;28;20483;-82
2023/05/29 02:11:14;;;;;;;4.90;4.20;;;14.20;99.90;;;;;;5094101;28;20497;-83
2023/05/29 02:13:42;;;;;;;6.13;4.63;;;14.20;99.90;;;;;;5094214;28;20467;-83
2023/05/29 02:16:09;;;;;;;6.93;5.00;;;14.30;99.90;;;;;;5093835;28;20568;-83
2023/05/29 02:18:37;;;;;;;7.10;4.43;;;14.30;99.90;;;;;;5094436;28;20444;-83
2023/05/29 02:21:04;;;;;;;5.53;3.97;;;14.40;99.90;;;;;;5109385;28;20524;-83
2023/05/29 02:23:31;;;;;;;5.87;4.27;;;14.40;99.90;;;;;;5093819;28;20479;-83
2023/05/29 02:25:58;;;;;;;7.93;4.07;;;14.50;99.90;;;;;;5107089;28;20439;-82
2023/05/29 02:28:25;;;;;;;7.87;4.27;;;14.50;99.90;;;;;;5114237;28;20454;-83
2023/05/29 02:30:52;;;;;;;11.10;7.60;;;14.50;99.90;;;;;;5114397;28;20463;-82
2023/05/29 02:33:19;;;;;;;6.90;3.80;;;14.40;99.90;;;;;;5113357;28;20512;-83
2023/05/29 02:35:48;;;;;;;8.93;4.70;;;14.10;99.90;;;;;;5112182;28;21191;-83
2023/05/29 02:38:15;;;;;;;6.40;4.40;;;13.80;99.90;;;;;;5111863;28;20479;-82
2023/05/29 02:40:41;;;;;;;5.50;3.93;;;13.80;99.90;;;;;;5114111;28;20913;-83
2023/05/29 02:43:13;;;;;;;7.20;4.70;;;13.80;99.90;;;;;;5113542;28;20500;-83
2023/05/29 02:45:40;;;;;;;6.03;4.00;;;13.90;99.90;;;;;;5113583;28;20530;-83
2023/05/29 02:48:07;;;;;;;5.27;3.90;;;14.00;99.90;;;;;;5114269;28;20524;-83
2023/05/29 02:50:34;;;;;;;7.40;4.33;;;14.10;99.90;;;;;;5114051;28;20464;-82
2023/05/29 02:53:02;;;;;;;6.23;4.07;;;14.20;99.90;;;;;;5111348;28;20479;-83
2023/05/29 02:55:31;;;;;;;8.77;4.50;;;14.20;99.90;;;;;;5113695;28;20901;-82
2023/05/29 02:57:59;;;;;;;7.87;4.07;;;14.30;99.90;;;;;;5113455;28;20538;-83
2023/05/29 03:00:28;;;;;;;6.77;4.70;;;14.30;99.90;;;;;;5114035;28;20546;-83
2023/05/29 03:02:55;;;;;;;8.20;4.97;;;14.30;99.90;;;;;;5113391;28;20827;-83
2023/05/29 03:05:22;;;;;;;5.30;4.50;;;14.40;99.90;;;;;;5113667;28;20438;-82
2023/05/29 03:07:49;;;;;;;5.00;4.00;;;14.40;99.90;;;;;;5113146;28;20466;-83
2023/05/29 03:10:18;;;;;;;6.90;4.70;;;14.30;99.90;;;;;;5113396;28;20471;-83
2023/05/29 03:12:45;;;;;;;5.73;3.83;;;14.30;99.90;;;;;;5113183;28;20526;-83
2023/05/29 03:15:12;;;;;;;6.03;4.57;;;14.40;99.90;;;;;;5113187;28;20579;-83
2023/05/29 03:17:39;;;;;;;6.03;4.23;;;14.40;99.90;;;;;;5112929;28;20445;-83
2023/05/29 03:20:07;;;;;;;7.97;5.60;;;14.40;99.90;;;;;;5113185;28;20534;-83
2023/05/29 03:22:35;;;;;;;7.53;4.63;;;14.30;99.90;;;;;;5113001;28;20444;-83
2023/05/29 03:25:02;;;;;;;6.13;4.50;;;14.30;99.90;;;;;;5113229;28;20490;-83
2023/05/29 03:27:31;;;;;;;5.23;4.07;;;14.30;99.90;;;;;;5112894;28;20439;-83
2023/05/29 03:29:59;;;;;;;7.17;4.90;;;14.20;99.90;;;;;;5113007;28;20451;-83
2023/05/29 03:32:26;;;;;;;7.27;4.37;;;14.10;99.90;;;;;;5112861;28;20470;-82
2023/05/29 03:34:53;;;;;;;7.63;5.07;;;14.10;99.90;;;;;;5112944;28;20483;-83
2023/05/29 03:37:20;;;;;;;5.63;4.53;;;14.00;99.90;;;;;;5110803;28;20527;-82
2023/05/29 03:39:47;;;;;;;7.50;4.50;;;13.90;99.90;;;;;;5111968;28;20515;-83
2023/05/29 03:42:14;;;;;;;9.87;5.73;;;13.90;99.90;;;;;;5112413;28;20440;-82
2023/05/29 03:44:43;;;;;;;9.53;4.37;;;14.00;99.90;;;;;;5113239;28;20454;-83
2023/05/29 03:47:10;;;;;;;7.00;4.10;;;14.00;99.90;;;;;;5112432;28;20508;-82
2023/05/29 03:49:37;;;;;;;7.10;4.40;;;13.90;99.90;;;;;;5112749;28;20523;-83
2023/05/29 03:52:04;;;;;;;8.10;5.57;;;14.00;99.90;;;;;;5110393;28;20559;-83
2023/05/29 03:54:31;;;;;;;6.90;4.27;;;13.90;99.90;;;;;;5112885;28;20424;-83
2023/05/29 03:56:58;;;;;;;6.90;4.67;;;13.70;99.90;;;;;;5112091;28;20623;-82
2023/05/29 03:59:25;;;;;;;6.70;4.70;;;13.70;99.90;;;;;;5112571;28;20483;-83
2023/05/29 04:01:53;;;;;;;6.47;4.83;;;13.70;99.90;;;;;;5112121;28;20451;-82
2023/05/29 04:04:20;;;;;;;8.73;4.97;;;13.70;99.90;;;;;;5111723;28;20482;-83
2023/05/29 04:06:47;;;;;;;8.47;5.40;;;13.80;99.90;;;;;;5112476;28;20521;-83
2023/05/29 04:09:14;;;;;;;6.80;4.63;;;13.80;99.90;;;;;;5112496;28;20997;-83
2023/05/29 04:11:41;;;;;;;7.60;5.03;;;13.90;99.90;;;;;;5112285;28;20498;-83
2023/05/29 04:14:08;;;;;;;5.10;3.90;;;13.90;99.90;;;;;;5112361;28;20435;-83
2023/05/29 04:16:35;;;;;;;6.87;4.73;;;14.00;99.90;;;;;;5111515;28;20475;-83
2023/05/29 04:19:03;;;;;;;7.50;4.93;;;14.00;99.90;;;;;;5112592;28;20872;-83
2023/05/29 04:21:32;;;;;;;8.07;5.10;;;14.00;99.90;;;;;;5112270;28;20501;-83
2023/05/29 04:23:59;;;;;;;9.70;4.90;;;14.00;99.90;;;;;;5112004;28;21104;-83
2023/05/29 04:26:26;;;;;;;6.17;4.60;;;14.00;99.90;;;;;;5112041;28;20459;-83
2023/05/29 04:28:57;;;;;;;4.83;3.83;;;14.00;99.90;;;;;;5112259;28;21198;-83
2023/05/29 04:31:24;;;;;;;6.90;4.60;;;13.90;99.90;;;;;;5112101;28;20563;-83
2023/05/29 04:33:54;;;;;;;7.10;4.60;;;13.90;99.90;;;;;;5112024;28;20486;-83
2023/05/29 04:36:25;;;;;;;5.10;3.87;;;13.90;99.90;;;;;;5110157;28;20483;-83
2023/05/29 04:38:53;;;;;;;5.63;4.40;;;14.00;99.90;;;;;;5111901;28;21011;-83
2023/05/29 04:41:23;;;;;;;7.53;4.53;;;14.00;99.90;;;;;;5112286;28;20494;-83
2023/05/29 04:43:50;;;;;;;7.73;4.90;;;14.00;99.90;;;;;;5111894;28;20446;-83
2023/05/29 04:46:17;;;;;;;5.83;4.67;;;14.00;99.90;;;;;;5111585;28;20444;-83
2023/05/29 04:48:44;;;;;;;5.77;4.90;;;13.90;99.90;;;;;;5112201;28;20527;-82
2023/05/29 04:51:11;;;;;;;9.37;5.67;;;13.70;99.90;;;;;;5107539;28;20509;-83
2023/05/29 04:53:41;;;;;;;7.53;5.90;;;13.60;99.90;;;;;;5097935;28;20442;-83
2023/05/29 04:56:08;;;;;;;7.13;5.23;;;13.40;99.90;;;;;;5103379;28;20470;-83
2023/05/29 04:58:35;;;;;;;7.57;4.73;;;13.50;99.90;;;;;;5111948;28;20480;-82
2023/05/29 05:01:02;;;;;;;6.60;5.00;;;13.40;99.90;;;;;;5111862;28;20542;-83
2023/05/29 05:03:30;;;;;;;8.20;5.80;;;13.40;99.90;;;;;;5111822;28;20962;-82
2023/05/29 05:05:58;;;;;;;6.03;4.73;;;13.40;99.90;;;;;;5111442;28;20458;-83
2023/05/29 05:08:25;;;;;;;7.83;5.33;;;13.30;99.90;;;;;;5111656;28;20430;-82
2023/05/29 05:10:53;;;;;;;8.47;5.50;;;13.30;99.90;;;;;;5111527;28;21056;-82
2023/05/29 05:13:20;;;;;;;6.50;5.50;;;13.40;99.90;;;;;;5111455;28;20517;-82
2023/05/29 05:15:47;;;;;;;8.77;5.50;;;13.40;99.90;;;;;;5105306;28;20562;-82
2023/05/29 05:18:14;;;;;;;7.10;5.10;;;13.40;99.90;;;;;;5103734;28;20527;-83
2023/05/29 05:20:41;;;;;;;9.40;6.27;;;13.40;99.90;;;;;;5095456;28;20862;-83
2023/05/29 05:23:08;;;;;;;7.83;5.37;;;13.50;99.90;;;;;;5094976;28;20460;-83
2023/05/29 05:25:35;;;;;;;7.67;6.20;;;13.60;99.90;;;;;;5096423;28;20534;-85
2023/05/29 05:28:04;;;;;;;8.43;5.67;;;13.80;99.90;;;;;;5096554;28;20866;-85
2023/05/29 05:30:31;;;;;;;9.00;5.80;;;14.00;99.90;;;;;;5096801;28;20463;-85
2023/05/29 05:32:58;;;;;;;5.73;4.97;;;14.00;99.90;;;;;;5096064;28;20451;-85
2023/05/29 05:35:25;;;;;;;7.83;5.60;;;14.10;99.90;;;;;;5096248;28;20436;-85
2023/05/29 05:37:52;;;;;;;6.63;5.20;;;14.10;99.90;;;;;;5094461;28;20452;-85
2023/05/29 05:40:19;;;;;;;8.37;5.77;;;14.20;99.90;;;;;;5096323;28;21035;-85
2023/05/29 05:42:46;;;;;;;6.70;4.90;;;14.10;99.90;;;;;;5095443;28;20989;-85
2023/05/29 05:45:15;;;;;;;6.87;5.27;;;14.10;99.90;;;;;;5095346;28;20471;-85
2023/05/29 05:47:41;;;;;;;7.97;4.80;;;14.10;99.90;;;;;;5095101;28;20476;-85
2023/05/29 05:50:09;;;;;;;7.20;5.00;;;14.10;99.90;;;;;;5096109;28;20890;-85
2023/05/29 05:52:36;;;;;;;8.07;6.10;;;14.20;99.90;;;;;;5094783;28;20473;-85
2023/05/29 05:55:04;;;;;;;9.30;5.70;;;14.30;99.90;;;;;;5108274;28;20444;-85
2023/05/29 05:57:32;;;;;;;6.50;4.87;;;14.40;99.90;;;;;;5095662;28;20476;-85
2023/05/29 05:59:59;;;;;;;7.90;6.13;;;14.50;99.90;;;;;;5095375;28;20444;-85
2023/05/29 06:02:28;;;;;;;10.60;5.80;;;14.60;99.90;;;;;;5094976;28;20448;-85
2023/05/29 06:04:55;;;;;;;6.60;5.13;;;14.60;99.90;;;;;;5102859;28;20475;-85
2023/05/29 06:07:22;;;;;;;10.30;6.27;;;14.60;99.90;;;;;;5115155;28;20521;-85
2023/05/29 06:09:49;;;;;;;8.53;5.40;;;14.60;99.90;;;;;;5115789;28;20479;-85
2023/05/29 06:12:16;;;;;;;6.53;5.80;;;14.60;99.90;;;;;;5115119;28;20463;-85
2023/05/29 06:14:43;;;;;;;6.90;6.07;;;14.60;99.90;;;;;;5115493;28;20451;-85
2023/05/29 06:17:11;;;;;;;7.97;6.13;;;14.50;99.90;;;;;;5112264;28;20475;-85
2023/05/29 06:19:39;;;;;;;7.90;5.53;;;14.50;99.90;;;;;;5100833;28;20432;-85
2023/05/29 06:22:06;;;;;;;7.20;5.37;;;14.70;99.90;;;;;;5109138;28;21359;-85
2023/05/29 06:24:33;;;;;;;7.07;6.00;;;14.50;99.90;;;;;;5110099;28;20526;-85
2023/05/29 06:27:01;;;;;;;7.20;5.53;;;14.60;99.90;;;;;;5113934;28;20508;-85
2023/05/29 06:29:28;;;;;;;9.20;6.17;;;14.70;99.90;;;;;;5103737;28;20532;-85
2023/05/29 06:31:55;;;;;;;8.50;5.47;;;14.70;99.90;;;;;;5096560;28;20491;-85
2023/05/29 06:34:22;;;;;;;7.60;5.50;;;14.80;99.90;;;;;;5096293;28;20834;-85
2023/05/29 06:36:50;;;;;;;7.87;5.40;;;14.90;99.90;;;;;;5093153;28;20489;-86
2023/05/29 06:39:18;;;;;;;9.13;5.37;;;14.90;99.90;;;;;;5092990;28;20500;-85
2023/05/29 06:41:45;;;;;;;7.93;6.10;;;15.10;99.90;;;;;;5094150;28;20471;-85
2023/05/29 06:44:11;;;;;;;9.47;5.73;;;15.20;99.90;;;;;;5101552;28;20468;-85
2023/05/29 06:46:38;;;;;;;7.83;6.10;;;15.20;99.90;;;;;;5114338;28;20429;-84
2023/05/29 06:49:05;;;;;;;9.17;5.80;;;15.20;99.90;;;;;;5114448;28;20493;-85
2023/05/29 06:51:34;;;;;;;7.60;5.83;;;15.30;99.90;;;;;;5114225;28;20490;-85
2023/05/29 06:54:02;;;;;;;8.10;5.33;;;15.30;99.90;;;;;;5114496;28;21014;-85
2023/05/29 06:56:30;;;;;;;7.63;5.33;;;15.40;99.90;;;;;;5112571;28;21063;-85
2023/05/29 06:58:57;;;;;;;7.07;5.27;;;15.50;99.90;;;;;;5108626;28;20490;-85
2023/05/29 07:01:24;;;;;;;7.70;4.97;;;15.60;99.90;;;;;;5114937;28;21047;-85
2023/05/29 07:03:53;;;;;;;8.67;5.00;;;15.60;99.90;;;;;;5113912;28;20440;-85
2023/05/29 07:06:20;;;;;;;7.73;5.13;;;15.60;99.90;;;;;;5105562;28;20470;-85
2023/05/29 07:08:47;;;;;;;6.87;5.30;;;15.70;99.90;;;;;;5114415;28;20434;-85
2023/05/29 07:11:15;;;;;;;7.40;4.50;;;15.70;99.90;;;;;;5114433;28;20588;-84
2023/05/29 07:13:42;;;;;;;10.03;5.10;;;15.70;99.90;;;;;;5112317;28;20481;-85
2023/05/29 07:16:09;;;;;;;7.93;5.10;;;15.80;99.90;;;;;;5102533;28;20502;-85
2023/05/29 07:18:36;;;;;;;8.13;5.57;;;15.80;99.90;;;;;;5115472;28;20537;-86
2023/05/29 07:21:03;;;;;;;5.30;3.70;;;15.70;99.90;;;;;;5102904;28;21034;-86
2023/05/29 07:23:30;;;;;;;6.40;4.40;;;15.70;99.90;;;;;;5096558;28;20499;-85
2023/05/29 07:25:57;;;;;;;6.60;4.60;;;15.70;99.90;;;;;;5104944;28;20500;-85
2023/05/29 07:28:25;;;;;;;8.97;4.50;;;15.80;99.90;;;;;;5101148;28;20450;-87
2023/05/29 07:30:52;;;;;;;7.63;4.70;;;15.80;99.90;;;;;;5100034;28;21038;-86
2023/05/29 07:33:19;;;;;;;6.57;4.67;;;15.80;99.90;;;;;;5104810;28;20455;-86
2023/05/29 07:35:47;;;;;;;7.30;5.27;;;15.80;99.90;;;;;;5108830;28;20806;-85
2023/05/29 07:38:13;;;;;;;8.10;4.83;;;15.80;99.90;;;;;;5103531;28;20505;-85
2023/05/29 07:40:40;;;;;;;8.50;5.10;;;15.90;99.90;;;;;;5108920;28;20878;-85
2023/05/29 07:43:07;;;;;;;7.43;4.63;;;16.00;99.90;;;;;;5105124;28;20475;-86
2023/05/29 07:45:36;;;;;;;9.83;5.20;;;16.00;99.90;;;;;;5117310;28;20920;-85
2023/05/29 07:48:03;;;;;;;6.70;5.10;;;16.00;99.90;;;;;;5094873;28;20467;-85
2023/05/29 07:50:30;;;;;;;7.13;5.50;;;16.10;99.90;;;;;;5109182;28;21006;-85
2023/05/29 07:52:57;;;;;;;8.87;5.73;;;16.20;99.90;;;;;;5115172;28;20457;-85
2023/05/29 07:55:24;;;;;;;8.20;6.00;;;16.20;99.90;;;;;;5105587;28;20533;-86
2023/05/29 07:57:50;;;;;;;7.30;5.27;;;16.30;99.90;;;;;;5102558;28;21051;-85
2023/05/29 08:00:18;;;;;;;7.83;4.77;;;16.30;99.90;;;;;;5113822;28;20492;-85
2023/05/29 08:02:46;;;;;;;7.60;5.10;;;16.20;99.90;;;;;;5111960;28;20471;-85
2023/05/29 08:05:13;;;;;;;7.90;5.30;;;16.30;99.90;;;;;;5103335;28;20897;-85
2023/05/29 08:07:41;;;;;;;6.27;5.33;;;16.40;99.90;;;;;;5108671;28;20425;-85
2023/05/29 08:10:09;;;;;;;7.07;5.57;;;16.50;99.90;;;;;;5105000;28;20461;-86
2023/05/29 08:12:36;;;;;;;8.70;4.90;;;16.60;99.90;;;;;;5107426;28;20471;-85
2023/05/29 08:15:03;;;;;;;8.33;5.77;;;16.70;99.90;;;;;;5103276;28;20493;-85
2023/05/29 08:17:31;;;;;;;6.43;4.63;;;16.80;99.90;;;;;;5108577;28;20532;-85
2023/05/29 08:19:59;;;;;;;6.93;4.60;;;16.90;99.90;;;;;;5117976;28;20479;-84
2023/05/29 08:22:30;;;;;;;6.43;4.53;;;17.00;99.90;;;;;;5111162;28;20982;-84
2023/05/29 08:24:57;;;;;;;7.60;5.27;;;17.20;99.90;;;;;;5113388;28;20484;-84
2023/05/29 08:27:24;;;;;;;8.00;4.20;;;17.40;99.90;;;;;;5111581;28;20471;-84
2023/05/29 08:29:50;;;;;;;7.40;4.50;;;17.40;99.90;;;;;;5112755;28;20876;-82
2023/05/29 08:32:17;;;;;;;6.60;4.60;;;17.40;99.90;;;;;;5112288;28;20435;-85
2023/05/29 08:34:45;;;;;;;8.27;4.70;;;17.40;99.90;;;;;;5112933;28;20529;-84
2023/05/29 08:37:14;;;;;;;7.17;4.70;;;17.50;99.90;;;;;;5110811;28;20482;-83
2023/05/29 08:39:41;;;;;;;9.23;5.00;;;17.60;99.90;;;;;;5100370;28;20454;-84
2023/05/29 08:42:14;;;;;;;6.87;4.70;;;17.60;99.90;;;;;;5091563;28;20539;-84
2023/05/29 08:44:42;;;;;;;6.83;4.00;;;17.70;99.90;;;;;;5109004;28;20440;-87
2023/05/29 08:47:10;;;;;;;6.60;5.13;;;17.80;99.90;;;;;;5095861;28;20490;-84
2023/05/29 08:49:42;;;;;;;7.80;4.90;;;17.90;99.90;;;;;;5103514;28;20449;-84
2023/05/29 08:52:13;;;;;;;7.10;4.10;;;18.00;99.90;;;;;;5100422;28;20452;-84
2023/05/29 08:54:41;;;;;;;5.20;4.10;;;18.00;99.90;;;;;;5109946;28;20518;-83
2023/05/29 08:57:08;;;;;;;5.70;4.67;;;18.00;99.90;;;;;;5103653;28;20515;-84
2023/05/29 08:59:38;;;;;;;5.80;3.80;;;18.10;99.90;;;;;;5108660;28;20448;-84
2023/05/29 09:02:05;;;;;;;5.30;4.20;;;18.20;99.90;;;;;;5112609;28;20561;-84
2023/05/29 09:04:32;;;;;;;7.43;4.67;;;18.30;99.90;;;;;;5104644;28;20448;-84
2023/05/29 09:06:59;;;;;;;6.47;4.47;;;18.30;99.90;;;;;;5104868;28;20439;-84
2023/05/29 09:09:28;;;;;;;6.70;4.43;;;18.40;99.90;;;;;;5112928;28;20506;-83
2023/05/29 09:11:57;;;;;;;5.33;4.20;;;18.40;99.90;;;;;;5112405;28;20468;-84
2023/05/29 09:14:35;;;;;;;7.27;4.80;;;18.50;99.90;;;;;;5094151;28;20550;-84
2023/05/29 09:17:02;;;;;;;7.17;4.17;;;18.50;99.90;;;;;;5097562;28;20842;-83
2023/05/29 09:19:29;;;;;;;7.60;4.30;;;18.50;99.90;;;;;;5104868;28;20445;-82
2023/05/29 09:22:02;;;;;;;6.73;3.93;;;18.50;99.90;;;;;;5099872;28;20467;-82
2023/05/29 09:24:30;;;;;;;5.53;4.30;;;18.30;99.90;;;;;;5103544;28;20447;-82
2023/05/29 09:27:00;;;;;;;6.50;4.20;;;18.40;99.90;;;;;;5101829;28;20494;-83
2023/05/29 09:29:27;;;;;;;7.77;5.23;;;18.60;99.90;;;;;;5103642;28;20948;-82
2023/05/29 09:31:54;;;;;;;7.43;4.43;;;18.70;99.90;;;;;;5122225;28;20452;-82
2023/05/29 09:34:24;;;;;;;5.40;4.27;;;18.70;99.90;;;;;;5105689;28;21048;-84
2023/05/29 09:36:52;;;;;;;6.17;5.10;;;18.80;99.90;;;;;;5102724;28;20863;-83
2023/05/29 09:39:19;;;;;;;8.20;5.07;;;18.90;99.90;;;;;;5100041;28;21164;-83
2023/05/29 09:41:48;;;;;;;6.97;4.60;;;19.00;99.90;;;;;;5101746;28;20485;-83
2023/05/29 09:44:16;;;;;;;6.43;4.77;;;19.10;99.90;;;;;;5100032;28;20441;-83
2023/05/29 09:46:44;;;;;;;8.30;4.50;;;19.30;99.90;;;;;;5099097;28;20435;-82
2023/05/29 09:49:16;;;;;;;5.47;4.50;;;19.40;99.90;;;;;;5100914;28;20818;-81
2023/05/29 09:51:47;;;;;;;6.13;3.97;;;19.40;99.90;;;;;;5099988;28;20477;-81
2023/05/29 09:54:18;;;;;;;6.27;4.97;;;19.50;99.90;;;;;;5100915;28;20436;-84
2023/05/29 09:56:47;;;;;;;8.87;4.70;;;19.50;99.90;;;;;;5109871;28;20808;-84
2023/05/29 09:59:18;;;;;;;5.57;3.87;;;19.50;99.90;;;;;;5110908;28;20451;-84
2023/05/29 10:01:45;;;;;;;5.33;4.23;;;19.60;99.90;;;;;;5107956;28;20472;-83
2023/05/29 10:04:13;;;;;;;5.70;3.97;;;19.70;99.90;;;;;;5115858;28;20871;-84
2023/05/29 10:06:45;;;;;;;6.10;4.10;;;19.70;99.90;;;;;;5110033;28;20857;-84
2023/05/29 10:09:16;;;;;;;5.23;3.63;;;19.70;99.90;;;;;;5111949;28;20449;-84
2023/05/29 10:11:45;;;;;;;5.17;3.73;;;19.90;99.90;;;;;;5111129;28;20498;-83
2023/05/29 10:14:18;;;;;;;5.43;4.33;;;20.00;99.90;;;;;;5111732;28;20461;-84
2023/05/29 10:16:48;;;;;;;6.10;4.70;;;20.10;99.90;;;;;;5110306;28;20453;-85
2023/05/29 10:19:21;;;;;;;8.83;4.13;;;20.10;99.90;;;;;;5102300;28;20537;-86
2023/05/29 10:21:50;;;;;;;7.20;4.90;;;20.20;99.90;;;;;;5096639;28;20471;-85
2023/05/29 10:24:18;;;;;;;8.57;4.50;;;20.20;99.90;;;;;;5104925;28;20462;-86
2023/05/29 10:26:49;;;;;;;6.47;4.13;;;20.20;99.90;;;;;;5091295;28;20466;-84
2023/05/29 10:29:28;;;;;;;5.97;4.27;;;20.20;99.90;;;;;;5094516;28;20922;-86
2023/05/29 10:32:07;;;;;;;7.80;5.00;;;20.30;99.90;;;;;;5093934;28;20993;-87
2023/05/29 10:34:42;;;;;;;9.17;5.33;;;20.40;99.90;;;;;;5094816;28;20446;-85
2023/05/29 10:37:16;;;;;;;6.70;4.63;;;20.50;99.90;;;;;;5092589;28;20475;-86
2023/05/29 10:39:43;;;;;;;7.80;4.07;;;20.60;99.90;;;;;;5094718;28;20467;-86
2023/05/29 10:42:45;;;;;;;8.87;5.30;;;20.60;99.90;;;;;;5094267;28;20528;-86
2023/05/29 10:45:49;;;;;;;6.43;4.70;;;20.60;99.90;;;;;;5094357;28;20762;-86
2023/05/29 10:48:38;;;;;;;5.77;3.63;;;20.80;99.90;;;;;;5094652;28;20507;-85
2023/05/29 10:51:07;;;;;;;5.53;3.93;;;20.90;99.90;;;;;;5094390;28;20620;-85
2023/05/29 10:53:39;;;;;;;6.77;4.20;;;21.00;99.90;;;;;;5092372;28;20446;-86
2023/05/29 10:56:12;;;;;;;4.83;3.43;;;21.00;99.90;;;;;;5093711;28;20955;-86
2023/05/29 10:58:40;;;;;;;5.80;3.90;;;21.00;99.90;;;;;;5094271;28;20463;-86
2023/05/29 11:01:09;;;;;;;6.80;3.53;;;21.00;99.90;;;;;;5093948;28;20482;-86
2023/05/29 11:03:37;;;;;;;5.77;4.30;;;21.10;99.90;;;;;;5093705;28;20432;-86
2023/05/29 11:06:07;;;;;;;5.40;4.00;;;21.10;99.90;;;;;;5092269;28;20448;-85
2023/05/29 11:08:35;;;;;;;6.70;4.20;;;21.00;99.90;;;;;;5094078;28;20436;-87
2023/05/29 11:11:03;;;;;;;4.90;3.90;;;21.00;99.90;;;;;;5093742;28;20447;-86
2023/05/29 11:13:35;;;;;;;5.50;4.03;;;21.00;99.90;;;;;;5093181;28;20463;-86
2023/05/29 11:16:36;;;;;;;5.10;3.97;;;20.90;99.90;;;;;;5093417;28;20450;-86
2023/05/29 11:19:05;;;;;;;7.27;4.07;;;21.10;99.90;;;;;;5103925;28;20472;-86
2023/05/29 11:21:51;;;;;;;5.93;3.80;;;21.20;99.90;;;;;;5093961;28;20942;-86
2023/05/29 11:24:23;;;;;;;6.63;4.37;;;21.30;99.90;;;;;;5093394;28;20446;-86
2023/05/29 11:26:52;;;;;;;5.37;3.67;;;21.40;99.90;;;;;;5104686;28;20538;-86
2023/05/29 11:29:23;;;;;;;6.60;4.40;;;21.60;99.90;;;;;;5113856;28;20443;-86
2023/05/29 11:31:58;;;;;;;5.80;3.83;;;21.60;99.90;;;;;;5113641;28;20497;-86
2023/05/29 11:34:30;;;;;;;6.40;3.53;;;21.70;99.90;;;;;;5113811;28;20880;-86
2023/05/29 11:36:58;;;;;;;5.10;3.70;;;21.70;99.90;;;;;;5111927;28;21053;-87
2023/05/29 11:39:25;;;;;;;7.63;4.13;;;21.70;99.90;;;;;;5113821;27;20485;-86
2023/05/29 11:41:53;;;;;;;5.50;3.53;;;21.70;99.90;;;;;;5112541;28;20467;-86
2023/05/29 11:44:20;;;;;;;7.10;4.10;;;21.70;99.90;;;;;;5113841;28;20447;-86
2023/05/29 11:46:47;;;;;;;5.20;4.07;;;21.60;99.90;;;;;;5113084;28;21020;-86
2023/05/29 11:49:29;;;;;;;5.73;4.00;;;21.40;99.90;;;;;;5102670;28;20519;-86
2023/05/29 11:52:05;;;;;;;5.67;4.00;;;21.40;99.90;;;;;;5092343;28;20478;-85
2023/05/29 11:54:34;;;;;;;7.10;4.33;;;21.40;99.90;;;;;;5093355;28;20485;-85
2023/05/29 11:57:02;;;;;;;5.90;3.90;;;21.40;99.90;;;;;;5092757;28;20440;-85
2023/05/29 11:59:29;;;;;;;6.63;3.50;;;21.50;99.90;;;;;;5092819;28;20476;-84
2023/05/29 12:01:56;;;;;;;6.90;4.47;;;21.50;99.90;;;;;;5090461;28;20471;-85
2023/05/29 12:04:25;;;;;;;5.07;4.30;;;21.40;99.90;;;;;;5092754;28;20477;-85
2023/05/29 12:06:52;;;;;;;10.43;3.63;;;21.50;99.90;;;;;;5090754;28;20456;-85
2023/05/29 12:09:27;;;;;;;5.50;3.47;;;21.60;99.90;;;;;;5092959;28;20519;-85
2023/05/29 12:11:55;;;;;;;5.93;3.73;;;21.50;99.90;;;;;;5090140;28;20455;-84
2023/05/29 12:14:22;;;;;;;5.63;4.07;;;21.60;99.90;;;;;;5092079;28;20524;-83
2023/05/29 12:16:49;;;;;;;6.07;3.40;;;21.80;99.90;;;;;;5101284;28;20941;-83
2023/05/29 12:19:16;;;;;;;6.07;4.10;;;21.90;99.90;;;;;;5100600;28;20924;-83
2023/05/29 12:21:45;;;;;;;4.90;3.83;;;21.80;99.90;;;;;;5100639;28;21008;-83
2023/05/29 12:24:12;;;;;;;5.13;3.53;;;22.00;99.90;;;;;;5099835;28;20527;-82
2023/05/29 12:26:38;;;;;;;5.90;4.20;;;22.10;99.90;;;;;;5098865;28;20496;-83
2023/05/29 12:29:06;;;;;;;5.17;3.27;;;22.20;99.90;;;;;;5102710;28;20543;-83
2023/05/29 12:31:33;;;;;;;4.80;3.67;;;22.20;99.90;;;;;;5101985;28;20455;-83
2023/05/29 12:34:02;;;;;;;6.53;3.33;;;22.40;99.90;;;;;;5097528;28;20478;-83
2023/05/29 12:36:30;;;;;;;5.33;3.50;;;22.30;99.90;;;;;;5099589;28;20433;-84
2023/05/29 12:39:00;;;;;;;5.33;3.83;;;22.20;99.90;;;;;;5099657;28;20468;-83
2023/05/29 12:41:28;;;;;;;5.27;3.70;;;22.10;99.90;;;;;;5101953;28;20531;-83
2023/05/29 12:43:56;;;;;;;6.43;3.43;;;22.10;99.90;;;;;;5099750;28;20437;-83
2023/05/29 12:46:24;;;;;;;6.43;3.87;;;22.00;99.90;;;;;;5104090;28;20439;-84
2023/05/29 12:48:54;;;;;;;6.53;4.30;;;22.00;99.90;;;;;;5101400;28;20928;-83
2023/05/29 12:51:24;;;;;;;4.57;3.30;;;22.10;99.90;;;;;;5099398;28;20460;-82
2023/05/29 12:53:54;;;;;;;5.73;3.87;;;22.20;99.90;;;;;;5100064;28;20438;-83